createdAt,value
2023-04-15T00:01:19.498Z,38980.78
2023-04-15T00:03:58.731Z,38978.78
2023-04-15T00:06:26.349Z,38984.75
2023-04-15T00:08:54.360Z,38972.81
2023-04-15T00:11:24.508Z,39014.66
2023-04-15T00:13:51.844Z,39046.56
2023-04-15T00:16:21.501Z,39020.66
2023-04-15T00:18:49.130Z,39028.63
2023-04-15T00:21:18.810Z,39064.50
2023-04-15T00:23:49.708Z,39088.44
2023-04-15T00:26:19.457Z,39048.56
2023-04-15T00:28:50.498Z,39088.44
2023-04-15T00:31:18.075Z,39076.47
2023-04-15T00:33:46.781Z,39062.53
2023-04-15T00:36:14.646Z,39102.41
2023-04-15T00:38:42.071Z,39108.38
2023-04-15T00:41:11.260Z,39090.44
2023-04-15T00:43:38.448Z,39130.31
2023-04-15T00:46:06.866Z,39128.31
2023-04-15T00:48:36.973Z,39158.22
2023-04-15T00:51:04.670Z,39176.16
2023-04-15T00:53:33.223Z,39214.06
2023-04-15T00:56:02.833Z,39241.97
2023-04-15T00:58:30.186Z,39235.97
2023-04-15T01:00:59.940Z,39224.03
2023-04-15T01:03:27.975Z,39273.88
2023-04-15T01:05:58.359Z,39291.81
2023-04-15T01:08:31.691Z,39315.75
2023-04-15T01:11:02.249Z,39335.69
2023-04-15T01:13:34.276Z,39351.63
2023-04-15T01:16:03.073Z,39325.72
2023-04-15T01:18:31.536Z,39339.66
2023-04-15T01:21:07.741Z,39361.59
2023-04-15T01:23:39.458Z,39371.56
2023-04-15T01:26:09.213Z,39395.50
2023-04-15T01:28:37.752Z,39407.47
2023-04-15T01:31:13.593Z,39439.38
2023-04-15T01:33:43.593Z,39443.34
2023-04-15T01:36:11.063Z,39465.28
2023-04-15T01:38:43.216Z,39455.31
2023-04-15T01:41:10.473Z,39483.25
2023-04-15T01:43:37.937Z,39515.13
2023-04-15T01:46:06.164Z,39535.09
2023-04-15T01:48:35.890Z,39545.06
2023-04-15T01:51:04.270Z,39555.03
2023-04-15T01:53:31.642Z,39553.03
2023-04-15T01:55:59.006Z,39592.91
2023-04-15T01:58:28.798Z,39632.78
2023-04-15T02:00:56.615Z,39606.88
2023-04-15T02:03:25.684Z,39620.81
2023-04-15T02:05:53.555Z,39658.72
2023-04-15T02:08:21.746Z,39632.78
2023-04-15T02:10:53.575Z,39656.72
2023-04-15T02:13:20.885Z,39690.63
2023-04-15T02:15:50.705Z,39716.53
2023-04-15T02:18:20.044Z,39742.47
2023-04-15T02:20:48.254Z,39726.50
2023-04-15T02:23:15.670Z,39758.44
2023-04-15T02:25:53.936Z,39782.34
2023-04-15T02:28:24.015Z,39774.38
2023-04-15T02:30:52.806Z,39792.31
2023-04-15T02:33:23.985Z,39822.25
2023-04-15T02:35:51.548Z,39850.16
2023-04-15T02:38:18.933Z,39858.13
2023-04-15T02:40:50.259Z,39852.16
2023-04-15T02:43:17.597Z,39850.16
2023-04-15T02:45:47.822Z,39884.06
2023-04-15T02:48:19.449Z,39904.00
2023-04-15T02:50:49.350Z,39894.03
2023-04-15T02:53:17.677Z,39896.03
2023-04-15T02:55:46.356Z,39959.84
2023-04-15T02:58:13.666Z,39977.78
2023-04-15T03:00:43.405Z,40005.72
2023-04-15T03:03:15.197Z,40005.72
2023-04-15T03:05:45.058Z,39981.78
2023-04-15T03:08:14.994Z,39983.78
2023-04-15T03:10:44.736Z,39985.78
2023-04-15T03:13:14.316Z,39969.81
2023-04-15T03:15:42.027Z,39973.81
2023-04-15T03:18:09.417Z,39985.78
2023-04-15T03:20:37.225Z,39981.78
2023-04-15T03:23:04.777Z,39997.75
2023-04-15T03:25:35.383Z,39993.75
2023-04-15T03:28:05.559Z,40033.63
2023-04-15T03:30:33.664Z,40049.59
2023-04-15T03:33:03.232Z,40043.59
2023-04-15T03:35:33.102Z,40085.50
2023-04-15T03:38:03.526Z,40069.53
2023-04-15T03:40:31.177Z,40041.63
2023-04-15T03:42:58.344Z,40057.56
2023-04-15T03:45:25.783Z,40121.38
2023-04-15T03:47:53.042Z,40095.47
2023-04-15T03:50:20.628Z,40127.38
2023-04-15T03:52:51.334Z,40127.38
2023-04-15T03:55:18.623Z,40149.31
2023-04-15T03:57:46.486Z,40135.34
2023-04-15T04:00:13.806Z,40153.31
2023-04-15T04:02:41.457Z,40121.38
2023-04-15T04:05:09.316Z,40165.25
2023-04-15T04:07:36.919Z,40145.31
2023-04-15T04:10:04.403Z,40169.25
2023-04-15T04:12:31.827Z,40185.22
2023-04-15T04:15:01.699Z,40193.19
2023-04-15T04:17:31.512Z,40213.13
2023-04-15T04:19:58.806Z,40093.47
2023-04-15T04:22:26.135Z,39882.06
2023-04-15T04:24:55.667Z,39951.88
2023-04-15T04:27:23.003Z,39957.84
2023-04-15T04:29:50.259Z,39957.84
2023-04-15T04:32:17.473Z,39983.78
2023-04-15T04:34:49.440Z,39931.94
2023-04-15T04:37:16.774Z,39919.97
2023-04-15T04:39:43.977Z,39927.94
2023-04-15T04:42:16.006Z,39967.81
2023-04-15T04:44:47.785Z,39900.00
2023-04-15T04:47:17.553Z,39979.78
2023-04-15T04:49:47.094Z,39846.16
2023-04-15T04:52:14.373Z,39690.63
2023-04-15T04:54:41.635Z,39612.84
2023-04-15T04:57:15.608Z,39563.00
2023-04-15T04:59:43.657Z,39543.06
2023-04-15T05:02:11.381Z,39568.97
2023-04-15T05:04:41.787Z,39493.22
2023-04-15T05:07:13.790Z,39471.28
2023-04-15T05:09:43.099Z,39453.31
2023-04-15T05:12:14.882Z,39557.00
2023-04-15T05:14:42.371Z,39549.03
2023-04-15T05:17:11.128Z,39634.78
2023-04-15T05:19:38.385Z,39718.53
2023-04-15T05:22:08.296Z,39800.31
2023-04-15T05:24:35.536Z,39838.19
2023-04-15T05:27:02.942Z,39906.00
2023-04-15T05:29:30.580Z,39906.00
2023-04-15T05:31:57.946Z,40043.59
2023-04-15T05:34:25.302Z,40051.59
2023-04-15T05:36:52.615Z,40308.88
2023-04-15T05:39:19.926Z,40536.25
2023-04-15T05:41:47.113Z,40538.25
2023-04-15T05:44:14.361Z,40568.16
2023-04-15T05:46:54.348Z,40558.19
2023-04-15T05:49:31.468Z,40488.38
2023-04-15T05:51:59.577Z,40470.44
2023-04-15T05:54:29.225Z,40468.44
2023-04-15T05:56:57.651Z,40480.41
2023-04-15T05:59:24.907Z,40438.50
2023-04-15T06:01:52.928Z,40416.56
2023-04-15T06:04:21.902Z,40237.06
2023-04-15T06:06:51.318Z,40169.25
2023-04-15T06:09:18.619Z,40223.09
2023-04-15T06:11:45.979Z,40215.13
2023-04-15T06:14:18.033Z,40151.31
2023-04-15T06:16:45.413Z,40177.22
2023-04-15T06:19:15.023Z,40304.88
2023-04-15T06:21:42.633Z,40442.50
2023-04-15T06:24:12.711Z,40536.25
2023-04-15T06:26:40.054Z,40530.28
2023-04-15T06:29:09.816Z,40498.34
2023-04-15T06:31:40.142Z,40480.41
2023-04-15T06:34:07.764Z,40526.28
2023-04-15T06:36:39.404Z,40691.84
2023-04-15T06:39:07.075Z,40963.13
2023-04-15T06:41:35.411Z,41262.38
2023-04-15T06:44:07.801Z,41505.78
2023-04-15T06:46:37.388Z,41803.09
2023-04-15T06:49:05.423Z,42050.53
2023-04-15T06:51:34.571Z,41904.88
2023-04-15T06:54:02.510Z,42052.53
2023-04-15T06:56:29.980Z,42373.84
2023-04-15T06:58:57.339Z,42771.00
2023-04-15T07:01:24.781Z,43130.31
2023-04-15T07:03:54.459Z,43421.75
2023-04-15T07:06:22.285Z,43733.22
2023-04-15T07:08:52.741Z,43984.78
2023-04-15T07:11:21.152Z,44220.41
2023-04-15T07:13:48.644Z,44368.19
2023-04-15T07:16:15.987Z,44535.94
2023-04-15T07:18:43.508Z,44585.84
2023-04-15T07:21:11.643Z,44519.94
2023-04-15T07:23:38.937Z,44016.75
2023-04-15T07:26:08.949Z,43549.53
2023-04-15T07:28:36.236Z,43311.97
2023-04-15T07:31:05.889Z,43178.22
2023-04-15T07:33:33.363Z,43106.34
2023-04-15T07:36:02.765Z,43072.41
2023-04-15T07:38:30.171Z,42994.56
2023-04-15T07:40:58.160Z,42906.75
2023-04-15T07:43:27.051Z,42858.84
2023-04-15T07:45:55.327Z,42918.72
2023-04-15T07:48:25.649Z,43000.56
2023-04-15T07:50:52.946Z,43110.34
2023-04-15T07:53:20.676Z,43214.16
2023-04-15T07:55:49.992Z,43260.06
2023-04-15T07:58:17.507Z,43361.88
2023-04-15T08:00:44.906Z,43429.75
2023-04-15T08:03:15.697Z,43477.66
2023-04-15T08:05:43.033Z,43511.59
2023-04-15T08:08:10.563Z,43539.56
2023-04-15T08:10:37.757Z,43599.44
2023-04-15T08:13:05.392Z,43527.56
2023-04-15T08:15:33.228Z,43413.78
2023-04-15T08:18:01.372Z,43280.03
2023-04-15T08:20:33.949Z,43154.25
2023-04-15T08:23:01.113Z,43100.38
2023-04-15T08:25:29.295Z,42964.63
2023-04-15T08:27:57.960Z,42916.72
2023-04-15T08:30:27.967Z,42914.72
2023-04-15T08:32:55.358Z,43529.56
2023-04-15T08:35:24.864Z,43729.22
2023-04-15T08:37:57.192Z,43757.19
2023-04-15T08:40:43.588Z,43998.78
2023-04-15T08:43:28.448Z,43936.88
2023-04-15T08:45:58.953Z,43926.88
2023-04-15T08:48:32.901Z,44008.75
2023-04-15T08:51:01.241Z,44056.69
2023-04-15T08:53:30.259Z,44170.50
2023-04-15T08:56:05.827Z,44172.50
2023-04-15T08:58:33.479Z,44308.28
2023-04-15T09:01:01.809Z,44124.56
2023-04-15T09:03:32.500Z,44206.44
2023-04-15T09:06:04.013Z,44238.38
2023-04-15T09:08:34.960Z,44146.53
2023-04-15T09:11:07.570Z,44134.53
2023-04-15T09:13:41.072Z,44160.50
2023-04-15T09:16:10.831Z,44126.56
2023-04-15T09:18:46.150Z,44160.50
2023-04-15T09:21:15.814Z,44132.56
2023-04-15T09:23:59.320Z,44120.56
2023-04-15T09:26:37.906Z,44028.72
2023-04-15T09:29:09.907Z,43936.88
2023-04-15T09:31:37.956Z,43928.88
2023-04-15T09:34:13.888Z,44042.69
2023-04-15T09:36:51.139Z,44124.56
2023-04-15T09:39:18.595Z,44196.44
2023-04-15T09:41:46.030Z,44338.22
2023-04-15T09:44:24.180Z,44617.81
2023-04-15T09:46:51.911Z,44583.84
2023-04-15T09:49:19.899Z,44679.72
2023-04-15T09:52:01.428Z,44823.50
2023-04-15T09:54:38.790Z,44983.28
2023-04-15T09:57:07.719Z,44833.50
2023-04-15T09:59:35.966Z,44735.63
2023-04-15T10:02:06.182Z,44807.53
2023-04-15T10:04:41.480Z,44893.41
2023-04-15T10:07:12.269Z,44907.41
2023-04-15T10:09:39.772Z,44947.34
2023-04-15T10:12:07.467Z,44753.63
2023-04-15T10:14:38.737Z,44731.63
2023-04-15T10:17:09.078Z,44691.69
2023-04-15T10:19:40.488Z,44683.72
2023-04-15T10:22:08.378Z,44659.75
2023-04-15T10:24:37.297Z,44631.78
2023-04-15T10:27:08.367Z,44617.81
2023-04-15T10:29:36.512Z,44667.72
2023-04-15T10:32:06.865Z,44635.78
2023-04-15T10:34:35.734Z,44637.78
2023-04-15T10:37:05.838Z,44480.00
2023-04-15T10:39:34.108Z,44358.19
2023-04-15T10:42:12.903Z,44124.56
2023-04-15T10:44:44.946Z,43942.84
2023-04-15T10:47:22.069Z,43729.22
2023-04-15T10:49:52.435Z,43563.50
2023-04-15T10:52:27.945Z,43465.69
2023-04-15T10:55:26.149Z,43327.94
2023-04-15T10:57:55.054Z,43268.06
2023-04-15T11:00:26.787Z,43190.19
2023-04-15T11:03:07.748Z,43100.38
2023-04-15T11:05:41.636Z,42974.59
2023-04-15T11:08:10.289Z,42936.69
2023-04-15T11:10:40.285Z,42890.78
2023-04-15T11:13:13.262Z,42886.78
2023-04-15T11:15:51.152Z,42800.94
2023-04-15T11:18:31.220Z,42681.19
2023-04-15T11:21:04.707Z,42417.75
2023-04-15T11:23:32.224Z,42096.44
2023-04-15T11:26:00.441Z,41886.91
2023-04-15T11:28:33.470Z,41342.19
2023-04-15T11:31:11.928Z,41082.84
2023-04-15T11:33:46.574Z,41001.03
2023-04-15T11:36:15.606Z,41134.69
2023-04-15T11:38:44.808Z,41170.63
2023-04-15T11:41:12.451Z,41088.81
2023-04-15T11:43:39.764Z,41068.88
2023-04-15T11:46:08.609Z,41086.81
2023-04-15T11:48:37.051Z,41030.97
2023-04-15T11:51:07.150Z,40899.31
2023-04-15T11:53:39.266Z,40835.47
2023-04-15T11:56:08.014Z,40711.78
2023-04-15T11:58:39.185Z,40530.28
2023-04-15T12:01:09.619Z,40468.44
2023-04-15T12:03:39.735Z,40354.75
2023-04-15T12:06:12.730Z,40308.88
2023-04-15T12:09:01.140Z,40113.41
2023-04-15T12:11:35.814Z,40011.69
2023-04-15T12:14:11.461Z,40017.69
2023-04-15T12:16:50.923Z,39965.81
2023-04-15T12:19:46.250Z,39981.78
2023-04-15T12:22:16.129Z,40033.63
2023-04-15T12:24:47.035Z,40041.63
2023-04-15T12:27:16.855Z,40019.69
2023-04-15T12:29:44.504Z,40017.69
2023-04-15T12:32:13.760Z,40001.72
2023-04-15T12:34:52.439Z,39993.75
2023-04-15T12:37:20.167Z,39961.84
2023-04-15T12:39:49.875Z,39957.84
2023-04-15T12:42:17.730Z,40017.69
2023-04-15T12:44:45.339Z,40063.56
2023-04-15T12:47:12.900Z,40057.56
2023-04-15T12:49:40.875Z,40049.59
2023-04-15T12:52:08.557Z,40071.53
2023-04-15T12:54:37.236Z,40071.53
2023-04-15T12:57:07.811Z,40131.34
2023-04-15T12:59:35.852Z,40135.34
2023-04-15T13:02:03.985Z,40141.34
2023-04-15T13:04:32.018Z,40239.06
2023-04-15T13:06:59.432Z,40235.06
2023-04-15T13:09:29.605Z,40157.28
2023-04-15T13:11:57.675Z,40093.47
2023-04-15T13:14:25.547Z,40077.50
2023-04-15T13:16:53.746Z,40095.47
2023-04-15T13:19:21.332Z,40097.47
2023-04-15T13:21:49.033Z,40095.47
2023-04-15T13:24:17.480Z,40097.47
2023-04-15T13:26:44.932Z,40089.47
2023-04-15T13:29:14.646Z,40117.41
2023-04-15T13:31:44.180Z,40119.41
2023-04-15T13:34:11.617Z,40107.44
2023-04-15T13:36:38.806Z,40095.47
2023-04-15T13:39:08.581Z,40103.44
2023-04-15T13:41:37.476Z,40137.34
2023-04-15T13:44:07.212Z,40107.44
2023-04-15T13:46:34.804Z,40085.50
2023-04-15T13:49:02.978Z,40095.47
2023-04-15T13:51:32.960Z,40113.41
2023-04-15T13:54:04.953Z,40139.34
2023-04-15T13:56:32.578Z,40123.38
2023-04-15T13:59:02.254Z,40175.25
2023-04-15T14:01:30.144Z,40171.25
2023-04-15T14:03:59.822Z,40344.78
2023-04-15T14:06:28.482Z,40420.56
2023-04-15T14:08:58.126Z,40466.44
2023-04-15T14:11:25.427Z,40430.53
2023-04-15T14:13:52.888Z,40476.41
2023-04-15T14:16:20.583Z,40492.38
2023-04-15T14:18:48.260Z,40448.50
2023-04-15T14:21:16.026Z,40524.28
2023-04-15T14:23:45.800Z,40496.34
2023-04-15T14:26:15.504Z,40510.31
2023-04-15T14:28:45.675Z,40490.38
2023-04-15T14:31:18.755Z,40542.22
2023-04-15T14:33:51.889Z,40536.25
2023-04-15T14:36:21.450Z,40608.06
2023-04-15T14:38:48.855Z,40596.09
2023-04-15T14:41:16.327Z,40636.00
2023-04-15T14:43:43.755Z,40614.03
2023-04-15T14:46:14.537Z,40636.00
2023-04-15T14:48:45.058Z,40620.03
2023-04-15T14:51:21.669Z,40659.91
2023-04-15T14:53:51.882Z,40653.94
2023-04-15T14:56:19.101Z,40637.97
2023-04-15T14:58:49.302Z,40608.06
2023-04-15T15:01:19.454Z,40616.03
2023-04-15T15:03:47.395Z,40524.28
2023-04-15T15:06:20.849Z,40524.28
2023-04-15T15:08:49.376Z,40570.16
2023-04-15T15:11:17.341Z,40578.13
2023-04-15T15:13:44.549Z,40562.19
2023-04-15T15:16:14.320Z,40576.16
2023-04-15T15:18:44.346Z,40538.25
2023-04-15T15:21:15.495Z,40592.09
2023-04-15T15:23:43.258Z,40634.00
2023-04-15T15:26:15.405Z,40725.75
2023-04-15T15:28:43.084Z,40953.16
2023-04-15T15:31:10.427Z,41028.97
2023-04-15T15:33:37.698Z,40931.22
2023-04-15T15:36:05.279Z,41098.78
2023-04-15T15:38:32.497Z,41613.53
2023-04-15T15:41:02.177Z,41896.88
2023-04-15T15:43:29.571Z,41876.94
2023-04-15T15:45:57.269Z,41609.56
2023-04-15T15:48:24.991Z,41374.13
2023-04-15T15:50:53.513Z,41216.50
2023-04-15T15:53:24.284Z,41134.69
2023-04-15T15:55:53.755Z,41050.91
2023-04-15T15:58:21.692Z,41042.94
2023-04-15T16:00:49.641Z,41003.03
2023-04-15T16:03:17.502Z,41009.03
2023-04-15T16:05:45.972Z,41030.97
2023-04-15T16:08:13.202Z,40981.09
2023-04-15T16:11:01.830Z,40999.03
2023-04-15T16:13:34.038Z,40951.16
2023-04-15T16:16:06.941Z,40931.22
2023-04-15T16:18:35.440Z,40899.31
2023-04-15T16:21:02.759Z,40889.31
2023-04-15T16:23:31.256Z,40839.44
2023-04-15T16:25:58.961Z,40815.50
2023-04-15T16:28:27.402Z,40751.69
2023-04-15T16:30:57.032Z,40655.94
2023-04-15T16:33:24.288Z,39762.41
2023-04-15T16:35:56.663Z,39192.13
2023-04-15T16:38:24.268Z,39200.09
2023-04-15T16:40:53.991Z,39239.97
2023-04-15T16:43:23.500Z,39311.75
2023-04-15T16:45:51.409Z,39339.66
2023-04-15T16:48:20.532Z,39337.69
2023-04-15T16:50:49.321Z,39361.59
2023-04-15T16:53:17.176Z,39407.47
2023-04-15T16:55:45.115Z,39409.47
2023-04-15T16:58:12.727Z,39431.38
2023-04-15T17:00:42.553Z,39435.38
2023-04-15T17:03:12.809Z,39407.47
2023-04-15T17:05:42.223Z,39443.34
2023-04-15T17:08:11.725Z,39578.94
2023-04-15T17:10:38.947Z,39602.88
2023-04-15T17:13:08.538Z,39664.69
2023-04-15T17:15:35.776Z,39730.50
2023-04-15T17:18:04.972Z,39798.31
2023-04-15T17:20:34.408Z,39734.50
2023-04-15T17:23:01.871Z,39658.72
2023-04-15T17:25:30.909Z,39618.84
2023-04-15T17:27:58.240Z,39547.03
2023-04-15T17:30:25.517Z,39511.16
2023-04-15T17:32:55.407Z,39427.41
2023-04-15T17:35:26.896Z,39399.50
2023-04-15T17:37:54.163Z,39369.56
2023-04-15T17:40:21.703Z,39343.66
2023-04-15T17:42:49.410Z,39353.63
2023-04-15T17:45:16.714Z,39313.75
2023-04-15T17:47:44.187Z,39269.88
2023-04-15T17:50:11.612Z,39224.03
2023-04-15T17:52:38.864Z,39206.06
2023-04-15T17:55:07.443Z,39172.19
2023-04-15T17:57:37.107Z,39192.13
2023-04-15T18:00:07.175Z,39128.31
2023-04-15T18:02:40.808Z,39132.31
2023-04-15T18:05:08.817Z,39128.31
2023-04-15T18:07:36.639Z,39084.44
2023-04-15T18:10:04.666Z,39082.47
2023-04-15T18:12:32.032Z,39106.38
2023-04-15T18:15:02.278Z,39114.38
2023-04-15T18:17:30.365Z,39084.44
2023-04-15T18:19:57.741Z,39088.44
2023-04-15T18:22:25.009Z,39084.44
2023-04-15T18:24:52.466Z,39046.56
2023-04-15T18:27:20.473Z,39086.44
2023-04-15T18:29:50.875Z,39048.56
2023-04-15T18:32:18.380Z,39076.47
2023-04-15T18:34:45.657Z,39068.50
2023-04-15T18:37:16.037Z,39076.47
2023-04-15T18:39:43.601Z,39062.53
2023-04-15T18:42:15.998Z,39064.50
2023-04-15T18:44:45.862Z,39078.47
2023-04-15T18:47:13.181Z,39100.41
2023-04-15T18:49:41.509Z,39076.47
2023-04-15T18:52:12.615Z,39072.50
2023-04-15T18:54:42.346Z,39080.47
2023-04-15T18:57:09.723Z,39052.56
2023-04-15T18:59:37.252Z,39060.53
2023-04-15T19:02:07.315Z,39072.50
2023-04-15T19:04:37.403Z,39056.53
2023-04-15T19:07:09.116Z,39046.56
2023-04-15T19:09:37.885Z,39052.56
2023-04-15T19:12:05.380Z,39036.59
2023-04-15T19:14:35.334Z,39048.56
2023-04-15T19:17:04.881Z,39022.66
2023-04-15T19:19:32.400Z,39004.69
2023-04-15T19:22:03.371Z,39004.69
2023-04-15T19:24:33.777Z,39004.69
2023-04-15T19:27:01.699Z,38982.78
2023-04-15T19:29:29.642Z,38974.78
2023-04-15T19:31:57.085Z,38978.78
2023-04-15T19:34:25.064Z,38972.81
2023-04-15T19:36:52.683Z,38948.88
2023-04-15T19:39:20.694Z,38938.91
2023-04-15T19:41:48.496Z,38946.88
2023-04-15T19:44:15.993Z,38934.91
2023-04-15T19:46:50.029Z,38952.88
2023-04-15T19:49:18.488Z,38899.03
2023-04-15T19:51:50.153Z,38877.09
2023-04-15T19:54:18.297Z,38867.13
2023-04-15T19:56:47.981Z,38875.13
2023-04-15T19:59:15.139Z,38879.09
2023-04-15T20:01:44.792Z,38871.13
2023-04-15T20:04:12.348Z,38843.22
2023-04-15T20:06:39.579Z,38827.25
2023-04-15T20:09:11.057Z,38835.25
2023-04-15T20:12:48.078Z,38829.25
2023-04-15T20:14:26.551Z,38809.31
2023-04-15T20:16:53.816Z,38777.41
2023-04-15T20:19:23.587Z,38789.38
2023-04-15T20:21:52.545Z,38759.47
2023-04-15T20:24:21.403Z,38755.50
2023-04-15T20:26:51.114Z,38773.44
2023-04-15T20:29:18.403Z,38763.47
2023-04-15T20:31:45.712Z,38745.53
2023-04-15T20:34:13.380Z,38761.47
2023-04-15T20:36:40.758Z,38731.56
2023-04-15T20:39:15.879Z,38717.63
2023-04-15T20:41:44.188Z,38739.53
2023-04-15T20:44:11.433Z,38727.59
2023-04-15T20:46:38.692Z,38729.56
2023-04-15T20:49:09.857Z,38737.56
2023-04-15T20:51:39.892Z,38733.56
2023-04-15T20:54:07.232Z,38707.66
2023-04-15T20:56:34.659Z,38745.53
2023-04-15T20:59:02.356Z,38767.47
2023-04-15T21:01:32.092Z,38735.56
2023-04-15T21:03:59.400Z,38739.53
2023-04-15T21:06:27.563Z,38723.59
2023-04-15T21:08:58.628Z,38745.53
2023-04-15T21:11:46.363Z,38729.56
2023-04-15T21:14:16.611Z,38741.53
2023-04-15T21:16:46.068Z,38723.59
2023-04-15T21:19:13.311Z,38733.56
2023-04-15T21:21:40.603Z,38731.56
2023-04-15T21:24:08.091Z,38721.59
2023-04-15T21:26:36.109Z,38739.53
2023-04-15T21:29:03.818Z,38729.56
2023-04-15T21:31:31.326Z,38741.53
2023-04-15T21:33:58.506Z,38723.59
2023-04-15T21:36:26.891Z,38715.63
2023-04-15T21:38:54.881Z,38715.63
2023-04-15T21:41:27.232Z,38683.72
2023-04-15T21:43:54.556Z,38749.50
2023-04-15T21:46:32.488Z,38853.19
2023-04-15T21:49:00.753Z,38909.00
2023-04-15T21:51:28.032Z,39070.50
2023-04-15T21:53:55.977Z,39259.91
2023-04-15T21:56:24.245Z,39273.88
2023-04-15T21:58:58.554Z,39469.28
2023-04-15T22:01:27.312Z,39772.38
2023-04-15T22:03:55.093Z,39780.34
2023-04-15T22:06:24.771Z,39906.00
2023-04-15T22:08:57.815Z,39872.09
2023-04-15T22:11:29.513Z,40029.66
2023-04-15T22:13:59.819Z,40065.53
2023-04-15T22:16:27.885Z,40332.81
2023-04-15T22:18:55.657Z,40257.00
2023-04-15T22:21:23.181Z,40376.69
2023-04-15T22:23:51.303Z,40815.50
2023-04-15T22:26:22.016Z,40795.56
2023-04-15T22:28:49.363Z,41022.97
2023-04-15T22:31:16.741Z,40973.09
2023-04-15T22:33:44.130Z,41268.38
2023-04-15T22:36:13.799Z,41326.22
2023-04-15T22:38:41.204Z,41747.22
2023-04-15T22:41:09.097Z,41807.09
2023-04-15T22:43:36.774Z,41649.47
2023-04-15T22:46:04.066Z,41886.91
2023-04-15T22:48:31.497Z,41677.38
2023-04-15T22:50:58.824Z,41689.38
2023-04-15T22:53:26.408Z,42274.06
2023-04-15T22:55:54.035Z,42084.47
2023-04-15T22:58:26.017Z,42182.25
2023-04-15T23:00:53.606Z,42363.84
2023-04-15T23:03:21.067Z,42485.59
2023-04-15T23:05:51.066Z,42711.13
2023-04-15T23:08:20.914Z,42771.00
2023-04-15T23:10:48.103Z,42786.97
2023-04-15T23:13:16.283Z,43156.25
2023-04-15T23:15:43.437Z,43048.47
2023-04-15T23:18:10.957Z,43052.47
2023-04-15T23:20:38.505Z,42812.94
2023-04-15T23:23:05.874Z,42864.81
2023-04-15T23:25:33.125Z,43054.44
2023-04-15T23:28:00.780Z,42878.78
2023-04-15T23:30:28.118Z,43034.50
2023-04-15T23:33:00.852Z,43130.31
2023-04-15T23:35:31.130Z,42777.00
2023-04-15T23:37:58.430Z,42852.84
2023-04-15T23:40:26.017Z,42936.69
2023-04-15T23:42:55.562Z,43198.19
2023-04-15T23:45:25.391Z,43280.03
2023-04-15T23:47:52.812Z,43244.09
2023-04-15T23:50:20.049Z,43493.63
2023-04-15T23:52:49.388Z,43645.38
2023-04-15T23:55:19.143Z,43960.84
2023-04-15T23:57:47.206Z,43701.28
